createdAt,value
2022-08-20T00:01:02.109Z,78.66
2022-08-20T00:03:58.242Z,78.81
2022-08-20T00:07:11.721Z,78.84
2022-08-20T00:10:19.863Z,79.03
2022-08-20T00:13:26.671Z,79.06
2022-08-20T00:16:34.543Z,79.19
2022-08-20T00:19:39.853Z,79.15
2022-08-20T00:23:13.437Z,79.35
2022-08-20T00:26:17.687Z,79.54
2022-08-20T00:29:25.499Z,79.72
2022-08-20T00:32:33.638Z,79.88
2022-08-20T00:35:45.244Z,79.94
2022-08-20T00:38:50.868Z,80.09
2022-08-20T00:41:37.036Z,80.08
2022-08-20T00:44:44.548Z,80.05
2022-08-20T00:47:52.656Z,80.27
2022-08-20T00:50:54.555Z,80.71
2022-08-20T00:53:56.600Z,80.83
2022-08-20T00:56:58.689Z,81.19
2022-08-20T01:00:01.770Z,81.27
2022-08-20T01:03:09.289Z,81.46
2022-08-20T01:06:17.509Z,81.60
2022-08-20T01:09:33.453Z,82.11
2022-08-20T01:12:59.990Z,82.66
2022-08-20T01:16:06.584Z,82.97
2022-08-20T01:19:29.213Z,82.95
2022-08-20T01:22:36.977Z,82.97
2022-08-20T01:26:19.617Z,83.15
2022-08-20T01:29:28.657Z,83.16
2022-08-20T01:39:29.491Z,83.59
2022-08-20T01:42:59.488Z,83.59
2022-08-20T01:49:23.145Z,83.46
2022-08-20T01:52:31.556Z,83.33
2022-08-20T01:55:33.107Z,83.31
2022-08-20T01:58:39.758Z,83.28
2022-08-20T02:01:55.676Z,83.41
2022-08-20T02:05:01.421Z,83.46
2022-08-20T02:08:07.362Z,83.44
2022-08-20T02:11:28.640Z,83.48
2022-08-20T02:14:20.902Z,83.52
2022-08-20T02:17:27.829Z,83.74
2022-08-20T02:20:27.637Z,83.91
2022-08-20T02:23:35.312Z,84.05
2022-08-20T02:26:43.288Z,84.21
2022-08-20T02:29:51.315Z,84.33
2022-08-20T02:32:59.545Z,84.53
2022-08-20T02:36:02.716Z,84.61
2022-08-20T02:39:09.655Z,84.60
2022-08-20T02:42:20.876Z,84.63
2022-08-20T02:45:30.951Z,84.68
2022-08-20T02:48:52.478Z,84.70
2022-08-20T02:52:33.064Z,84.54
2022-08-20T02:56:09.599Z,84.62
2022-08-20T02:59:19.974Z,84.51
2022-08-20T03:02:30.659Z,84.43
2022-08-20T03:05:38.119Z,84.48
2022-08-20T03:08:51.067Z,84.57
2022-08-20T03:11:56.878Z,84.64
2022-08-20T03:15:05.791Z,84.72
2022-08-20T03:18:12.535Z,84.71
2022-08-20T03:24:45.906Z,84.84
2022-08-20T03:27:55.606Z,85.00
2022-08-20T03:31:20.374Z,85.01
2022-08-20T03:34:28.875Z,85.04
2022-08-20T03:37:35.266Z,84.74
2022-08-20T03:40:46.787Z,84.77
2022-08-20T03:43:56.654Z,84.91
2022-08-20T03:47:04.361Z,85.07
2022-08-20T03:50:22.696Z,85.19
2022-08-20T03:53:25.600Z,85.19
2022-08-20T03:59:58.570Z,84.85
2022-08-20T04:06:32.151Z,84.87
2022-08-20T04:09:38.610Z,84.90
2022-08-20T04:12:52.715Z,84.86
2022-08-20T04:16:08.299Z,85.02
2022-08-20T04:19:20.799Z,85.10
2022-08-20T04:22:52.313Z,85.10
2022-08-20T04:26:29.938Z,85.13
2022-08-20T04:29:38.229Z,85.42
2022-08-20T04:32:46.725Z,85.58
2022-08-20T04:44:00.536Z,85.00
2022-08-20T05:02:58.139Z,85.16
2022-08-20T05:05:28.501Z,85.10
2022-08-20T05:07:58.578Z,85.21
2022-08-20T05:10:28.239Z,85.31
2022-08-20T05:13:01.241Z,85.30
2022-08-20T05:15:30.417Z,85.15
2022-08-20T05:18:06.506Z,85.15
2022-08-20T05:20:41.968Z,85.10
2022-08-20T05:23:13.148Z,85.00
2022-08-20T05:25:44.686Z,84.73
2022-08-20T05:28:24.105Z,84.62
2022-08-20T05:30:54.818Z,84.61
2022-08-20T05:33:25.794Z,84.78
2022-08-20T05:35:56.051Z,85.01
2022-08-20T05:38:29.357Z,84.88
2022-08-20T05:40:58.380Z,84.75
2022-08-20T05:43:27.470Z,84.56
2022-08-20T05:45:58.962Z,84.37
2022-08-20T05:48:30.902Z,84.24
2022-08-20T05:51:00.177Z,84.09
2022-08-20T05:53:30.100Z,83.92
2022-08-20T05:55:59.915Z,83.93
2022-08-20T05:58:31.477Z,83.92
2022-08-20T06:01:00.690Z,83.99
2022-08-20T06:06:44.917Z,83.89
2022-08-20T06:09:08.426Z,83.73
2022-08-20T06:11:37.625Z,83.74
2022-08-20T06:14:06.803Z,83.77
2022-08-20T06:16:37.196Z,83.65
2022-08-20T06:19:10.305Z,83.63
2022-08-20T06:21:41.763Z,83.65
2022-08-20T06:24:10.874Z,83.67
2022-08-20T06:26:39.966Z,83.69
2022-08-20T06:29:08.871Z,83.76
2022-08-20T06:31:40.707Z,83.62
2022-08-20T06:34:09.906Z,83.37
2022-08-20T06:36:38.909Z,83.15
2022-08-20T06:39:07.797Z,83.07
2022-08-20T06:41:37.444Z,82.98
2022-08-20T06:44:08.230Z,82.71
2022-08-20T06:46:39.141Z,82.54
2022-08-20T06:49:09.213Z,82.36
2022-08-20T06:51:41.411Z,82.20
2022-08-20T06:54:10.488Z,82.00
2022-08-20T06:56:39.665Z,81.68
2022-08-20T06:59:08.666Z,81.40
2022-08-20T07:01:37.536Z,81.12
2022-08-20T07:04:08.059Z,80.97
2022-08-20T07:06:37.179Z,80.88
2022-08-20T07:09:06.109Z,80.61
2022-08-20T07:11:35.681Z,80.11
2022-08-20T07:14:06.014Z,79.82
2022-08-20T07:16:34.907Z,79.74
2022-08-20T07:19:04.212Z,79.32
2022-08-20T07:21:33.996Z,79.13
2022-08-20T07:24:04.446Z,78.98
2022-08-20T07:26:35.115Z,78.60
2022-08-20T07:29:04.773Z,78.52
2022-08-20T07:31:53.435Z,78.51
2022-08-20T07:34:22.620Z,78.30
2022-08-20T07:36:51.836Z,78.11
2022-08-20T07:39:21.830Z,78.01
2022-08-20T07:42:04.048Z,77.90
2022-08-20T07:44:34.371Z,77.51
2022-08-20T07:47:05.045Z,77.23
2022-08-20T07:49:38.789Z,76.97
2022-08-20T07:52:08.030Z,76.76
2022-08-20T07:54:38.598Z,76.62
2022-08-20T07:57:07.554Z,76.07
2022-08-20T07:59:37.183Z,75.63
2022-08-20T08:02:06.894Z,75.70
2022-08-20T08:04:37.544Z,75.13
2022-08-20T08:07:07.330Z,74.81
2022-08-20T08:09:36.838Z,74.91
2022-08-20T08:12:06.625Z,74.70
2022-08-20T08:14:37.662Z,74.43
2022-08-20T08:17:07.562Z,73.65
2022-08-20T08:19:44.769Z,73.22
2022-08-20T08:22:19.063Z,72.20
2022-08-20T08:24:57.069Z,71.44
2022-08-20T08:27:27.112Z,71.28
2022-08-20T08:29:56.305Z,71.31
2022-08-20T08:32:25.389Z,70.80
2022-08-20T08:34:55.523Z,70.70
2022-08-20T08:37:27.866Z,70.25
2022-08-20T08:40:01.017Z,69.46
2022-08-20T08:42:45.461Z,68.98
2022-08-20T08:45:17.707Z,68.83
2022-08-20T08:47:47.018Z,68.78
2022-08-20T08:50:53.891Z,68.38
2022-08-20T08:53:39.473Z,68.09
2022-08-20T08:56:10.434Z,67.69
2022-08-20T08:58:39.604Z,67.62
2022-08-20T09:01:55.465Z,67.00
2022-08-20T09:04:07.289Z,67.27
2022-08-20T09:06:37.187Z,66.83
2022-08-20T09:09:11.004Z,66.66
2022-08-20T09:11:54.145Z,66.40
2022-08-20T09:14:27.546Z,66.36
2022-08-20T09:16:57.043Z,66.31
2022-08-20T09:19:26.466Z,66.19
2022-08-20T09:21:55.539Z,65.43
2022-08-20T09:24:25.479Z,65.01
2022-08-20T09:26:54.347Z,64.36
2022-08-20T09:29:23.451Z,64.66
2022-08-20T09:32:05.129Z,63.51
2022-08-20T09:34:38.433Z,63.84
2022-08-20T09:37:08.477Z,63.83
2022-08-20T09:39:38.210Z,63.75
2022-08-20T09:42:18.628Z,63.40
2022-08-20T09:44:48.746Z,63.06
2022-08-20T09:47:18.547Z,62.49
2022-08-20T09:49:48.625Z,62.16
2022-08-20T09:52:46.547Z,61.59
2022-08-20T09:55:57.241Z,61.81
2022-08-20T09:58:50.685Z,61.28
2022-08-20T10:01:22.635Z,60.87
2022-08-20T10:03:51.864Z,60.78
2022-08-20T10:06:21.804Z,60.95
2022-08-20T10:08:51.471Z,60.45
2022-08-20T10:11:20.606Z,60.21
2022-08-20T10:13:49.769Z,60.09
2022-08-20T10:16:19.477Z,60.17
2022-08-20T10:18:49.695Z,60.37
2022-08-20T10:21:18.998Z,60.06
2022-08-20T10:23:47.988Z,59.88
2022-08-20T10:26:17.868Z,59.65
2022-08-20T10:28:46.902Z,60.34
2022-08-20T10:31:17.327Z,60.04
2022-08-20T10:33:46.530Z,59.84
2022-08-20T10:36:18.373Z,59.27
2022-08-20T10:38:48.968Z,59.19
2022-08-20T10:41:18.228Z,58.88
2022-08-20T10:43:47.314Z,58.97
2022-08-20T10:46:18.046Z,58.88
2022-08-20T10:48:47.125Z,59.36
2022-08-20T10:51:17.160Z,59.17
2022-08-20T10:53:48.207Z,58.70
2022-08-20T10:56:17.411Z,58.43
2022-08-20T10:58:46.505Z,58.45
2022-08-20T11:01:28.774Z,58.13
2022-08-20T11:04:02.213Z,58.19
2022-08-20T11:06:34.591Z,58.95
2022-08-20T11:09:04.086Z,59.36
2022-08-20T11:11:36.822Z,58.45
2022-08-20T11:14:06.083Z,57.94
2022-08-20T11:16:37.205Z,57.72
2022-08-20T11:19:06.209Z,57.83
2022-08-20T11:21:36.280Z,57.39
2022-08-20T11:24:05.627Z,57.65
2022-08-20T11:26:34.826Z,57.53
2022-08-20T11:29:04.033Z,57.36
2022-08-20T11:31:33.215Z,57.25
2022-08-20T11:34:02.329Z,56.86
2022-08-20T11:36:32.019Z,56.82
2022-08-20T11:39:01.129Z,56.11
2022-08-20T11:41:30.014Z,55.77
2022-08-20T11:44:20.215Z,55.97
2022-08-20T11:46:51.093Z,55.62
2022-08-20T11:49:20.127Z,55.38
2022-08-20T11:51:50.287Z,55.67
2022-08-20T11:54:19.483Z,55.54
2022-08-20T11:56:50.111Z,55.06
2022-08-20T11:59:19.280Z,54.87
2022-08-20T12:02:02.828Z,55.56
2022-08-20T12:04:34.019Z,55.19
2022-08-20T12:07:20.887Z,55.15
2022-08-20T12:09:51.390Z,55.13
2022-08-20T12:12:26.955Z,55.20
2022-08-20T12:14:56.467Z,54.57
2022-08-20T12:17:30.898Z,54.82
2022-08-20T12:20:04.915Z,55.65
2022-08-20T12:22:34.024Z,55.58
2022-08-20T12:25:03.747Z,55.39
2022-08-20T12:27:36.630Z,55.37
2022-08-20T12:30:16.438Z,55.68
2022-08-20T12:32:45.846Z,55.65
2022-08-20T12:35:18.039Z,56.33
2022-08-20T12:37:47.768Z,56.54
2022-08-20T12:40:32.035Z,56.15
2022-08-20T12:43:04.284Z,54.91
2022-08-20T12:45:35.511Z,55.04
2022-08-20T12:48:12.519Z,55.65
2022-08-20T12:50:46.378Z,56.70
2022-08-20T12:53:15.577Z,56.86
2022-08-20T12:55:45.178Z,57.36
2022-08-20T12:58:14.289Z,57.91
2022-08-20T13:00:50.449Z,58.21
2022-08-20T13:03:21.424Z,58.03
2022-08-20T13:05:50.996Z,58.23
2022-08-20T13:08:20.184Z,58.60
2022-08-20T13:10:50.214Z,58.87
2022-08-20T13:13:21.111Z,59.11
2022-08-20T13:15:51.783Z,59.36
2022-08-20T13:18:21.283Z,59.54
2022-08-20T13:20:50.710Z,59.70
2022-08-20T13:23:20.719Z,59.88
2022-08-20T13:25:49.909Z,60.35
2022-08-20T13:28:18.891Z,60.65
2022-08-20T13:30:47.882Z,61.10
2022-08-20T13:33:16.929Z,60.95
2022-08-20T13:35:46.080Z,60.98
2022-08-20T13:38:17.362Z,61.16
2022-08-20T13:40:47.494Z,61.40
2022-08-20T13:43:18.218Z,61.69
2022-08-20T13:45:47.081Z,61.74
2022-08-20T13:48:16.376Z,61.61
2022-08-20T13:50:47.383Z,61.58
2022-08-20T13:53:17.647Z,61.95
2022-08-20T13:55:47.366Z,61.76
2022-08-20T13:58:17.795Z,62.07
2022-08-20T14:00:47.283Z,62.05
2022-08-20T14:03:17.757Z,61.87
2022-08-20T14:05:49.172Z,61.90
2022-08-20T14:08:25.244Z,62.08
2022-08-20T14:10:55.142Z,62.50
2022-08-20T14:13:27.102Z,62.85
2022-08-20T14:15:57.201Z,62.89
2022-08-20T14:18:26.420Z,62.53
2022-08-20T14:20:55.639Z,62.47
2022-08-20T14:23:24.706Z,62.58
2022-08-20T14:25:53.703Z,63.07
2022-08-20T14:28:25.064Z,63.88
2022-08-20T14:30:54.411Z,64.10
2022-08-20T14:33:25.101Z,64.64
2022-08-20T14:35:54.925Z,66.34
2022-08-20T14:38:24.211Z,67.53
2022-08-20T14:40:53.425Z,68.45
2022-08-20T14:43:22.625Z,69.44
2022-08-20T14:45:51.615Z,69.59
2022-08-20T14:48:20.688Z,69.60
2022-08-20T14:50:49.579Z,69.13
2022-08-20T14:53:22.579Z,69.93
2022-08-20T14:55:51.557Z,70.60
2022-08-20T14:58:21.087Z,71.50
2022-08-20T15:00:50.334Z,72.45
2022-08-20T15:03:21.525Z,72.73
2022-08-20T15:05:50.701Z,71.74
2022-08-20T15:08:19.612Z,73.21
2022-08-20T15:10:48.506Z,74.60
2022-08-20T15:13:17.493Z,75.36
2022-08-20T15:15:51.512Z,76.56
2022-08-20T15:18:25.209Z,76.88
2022-08-20T15:20:54.620Z,77.22
2022-08-20T15:23:24.441Z,77.46
2022-08-20T15:25:53.520Z,77.67
2022-08-20T15:28:23.073Z,78.31
2022-08-20T15:30:51.924Z,78.86
2022-08-20T15:33:20.813Z,78.83
2022-08-20T15:35:49.707Z,79.14
2022-08-20T15:38:19.213Z,79.16
2022-08-20T15:40:49.935Z,79.51
2022-08-20T15:43:18.976Z,79.84
2022-08-20T15:45:47.976Z,80.09
2022-08-20T15:48:22.675Z,80.59
2022-08-20T15:51:34.266Z,80.83
2022-08-20T15:54:10.821Z,80.85
2022-08-20T15:57:04.922Z,81.07
2022-08-20T15:59:54.799Z,81.41
2022-08-20T16:02:57.345Z,81.92
2022-08-20T16:06:04.352Z,82.20
2022-08-20T16:08:58.132Z,82.52
2022-08-20T16:11:50.007Z,82.49
2022-08-20T16:14:23.972Z,82.21
2022-08-20T16:17:06.362Z,82.31
2022-08-20T16:20:07.623Z,82.36
2022-08-20T16:22:44.417Z,82.57
2022-08-20T16:25:17.828Z,82.86
2022-08-20T16:28:03.787Z,83.01
2022-08-20T16:31:14.040Z,82.95
2022-08-20T16:34:46.533Z,83.24
2022-08-20T16:38:00.990Z,83.63
2022-08-20T16:40:57.285Z,83.82
2022-08-20T16:43:54.187Z,84.12
2022-08-20T16:46:37.793Z,84.15
2022-08-20T16:49:15.141Z,84.52
2022-08-20T16:51:52.957Z,84.40
2022-08-20T16:54:29.268Z,84.51
2022-08-20T16:57:06.921Z,84.59
2022-08-20T17:00:16.670Z,84.77
2022-08-20T17:03:10.294Z,84.77
2022-08-20T17:05:39.182Z,85.00
2022-08-20T17:08:22.206Z,84.98
2022-08-20T17:11:24.574Z,85.35
2022-08-20T17:14:08.145Z,85.24
2022-08-20T17:16:48.461Z,85.19
2022-08-20T17:19:29.670Z,85.55
2022-08-20T17:22:19.878Z,85.68
2022-08-20T17:24:49.662Z,85.75
2022-08-20T17:27:33.820Z,85.88
2022-08-20T17:30:37.195Z,85.82
2022-08-20T17:33:20.222Z,85.74
2022-08-20T17:36:05.186Z,86.09
2022-08-20T17:38:51.710Z,86.67
2022-08-20T17:41:33.248Z,87.37
2022-08-20T17:44:07.081Z,87.61
2022-08-20T17:46:52.385Z,87.80
2022-08-20T17:49:44.306Z,88.06
2022-08-20T17:52:59.289Z,88.30
2022-08-20T17:55:36.257Z,88.59
2022-08-20T17:58:17.136Z,88.89
2022-08-20T18:00:46.568Z,89.18
2022-08-20T18:03:22.764Z,89.38
2022-08-20T18:06:19.023Z,89.61
2022-08-20T18:09:35.524Z,89.58
2022-08-20T18:12:33.458Z,89.43
2022-08-20T18:15:24.688Z,89.32
2022-08-20T18:18:12.767Z,89.36
2022-08-20T18:21:37.262Z,89.35
2022-08-20T18:24:13.742Z,89.64
2022-08-20T18:29:47.144Z,89.79
2022-08-20T18:32:37.234Z,89.77
2022-08-20T18:35:38.709Z,89.78
2022-08-20T18:38:24.165Z,89.62
2022-08-20T18:40:55.385Z,89.43
2022-08-20T18:43:30.922Z,89.42
2022-08-20T18:46:30.070Z,89.59
2022-08-20T18:49:03.690Z,89.50
2022-08-20T18:51:43.194Z,89.37
2022-08-20T18:54:29.113Z,89.23
2022-08-20T18:57:40.563Z,89.07
2022-08-20T19:00:18.906Z,89.10
2022-08-20T19:03:22.705Z,89.20
2022-08-20T19:06:36.252Z,89.07
2022-08-20T19:09:16.196Z,89.11
2022-08-20T19:12:12.656Z,89.02
2022-08-20T19:15:14.202Z,89.12
2022-08-20T19:17:58.046Z,89.07
2022-08-20T19:20:35.527Z,89.13
2022-08-20T19:23:24.008Z,89.10
2022-08-20T19:26:25.186Z,89.23
2022-08-20T19:29:08.159Z,89.18
2022-08-20T19:31:38.413Z,89.25
2022-08-20T19:34:22.296Z,89.22
2022-08-20T19:37:09.181Z,89.19
2022-08-20T19:39:54.021Z,89.04
2022-08-20T19:42:36.608Z,89.01
2022-08-20T19:45:19.828Z,88.94
2022-08-20T19:48:09.218Z,88.80
2022-08-20T19:50:53.554Z,88.78
2022-08-20T19:53:35.606Z,88.80
2022-08-20T19:56:22.692Z,88.80
2022-08-20T19:59:07.267Z,88.85
2022-08-20T20:01:37.502Z,88.70
2022-08-20T20:04:17.700Z,88.87
2022-08-20T20:06:49.422Z,88.81
2022-08-20T20:09:28.771Z,88.72
2022-08-20T20:12:20.914Z,88.76
2022-08-20T20:14:55.720Z,88.70
2022-08-20T20:17:32.355Z,88.65
2022-08-20T20:20:19.564Z,88.78
2022-08-20T20:23:04.342Z,88.83
2022-08-20T20:25:35.383Z,88.81
2022-08-20T20:28:22.646Z,88.98
2022-08-20T20:30:54.597Z,89.16
2022-08-20T20:33:43.961Z,89.21
2022-08-20T20:36:41.347Z,89.26
2022-08-20T20:39:33.786Z,89.25
2022-08-20T20:42:09.082Z,89.23
2022-08-20T20:44:45.551Z,89.27
2022-08-20T20:47:36.098Z,89.32
2022-08-20T20:50:12.192Z,89.39
2022-08-20T20:52:56.810Z,89.35
2022-08-20T20:55:31.844Z,89.36
2022-08-20T20:58:03.088Z,89.47
2022-08-20T21:00:34.431Z,89.45
2022-08-20T21:03:04.425Z,89.40
2022-08-20T21:05:34.287Z,89.35
2022-08-20T21:08:08.607Z,89.40
2022-08-20T21:10:41.346Z,89.62
2022-08-20T21:13:12.504Z,89.62
2022-08-20T21:15:41.668Z,89.58
2022-08-20T21:18:11.928Z,89.52
2022-08-20T21:20:41.200Z,89.61
2022-08-20T21:23:10.233Z,89.75
2022-08-20T21:25:39.101Z,89.69
2022-08-20T21:28:09.764Z,89.73
2022-08-20T21:30:38.815Z,89.86
2022-08-20T21:33:07.928Z,89.97
2022-08-20T21:35:36.904Z,89.95
2022-08-20T21:38:06.408Z,89.92
2022-08-20T21:40:37.079Z,89.90
2022-08-20T21:43:07.011Z,89.87
2022-08-20T21:45:36.597Z,90.13
2022-08-20T21:48:08.317Z,90.12
2022-08-20T21:50:37.421Z,90.01
2022-08-20T21:53:12.760Z,89.96
2022-08-20T21:55:42.365Z,90.04
2022-08-20T21:58:12.987Z,90.12
2022-08-20T22:02:17.699Z,90.08
2022-08-20T22:06:12.581Z,89.96
2022-08-20T22:10:11.190Z,90.01
2022-08-20T22:14:03.771Z,89.99
2022-08-20T22:17:12.988Z,89.95
2022-08-20T22:21:06.376Z,90.10
2022-08-20T22:25:01.974Z,89.92
2022-08-20T22:29:00.192Z,89.78
2022-08-20T22:35:04.291Z,89.77
2022-08-20T22:38:17.262Z,89.84
2022-08-20T22:41:19.508Z,89.70
2022-08-20T22:44:26.909Z,89.62
2022-08-20T22:47:31.510Z,89.64
2022-08-20T22:50:36.289Z,89.71
2022-08-20T22:53:30.193Z,89.68
2022-08-20T22:59:33.679Z,89.67
2022-08-20T23:03:39.486Z,89.67
2022-08-20T23:09:52.864Z,90.23
2022-08-20T23:13:06.281Z,90.26
2022-08-20T23:16:09.964Z,90.38
2022-08-20T23:20:01.456Z,90.36
2022-08-20T23:23:07.163Z,90.31
2022-08-20T23:26:15.086Z,90.22
2022-08-20T23:29:22.574Z,90.11
2022-08-20T23:32:31.100Z,90.10
2022-08-20T23:35:36.063Z,90.14
2022-08-20T23:38:42.974Z,90.11
2022-08-20T23:44:49.870Z,90.23
2022-08-20T23:47:46.294Z,90.31
2022-08-20T23:51:36.947Z,90.35
2022-08-20T23:54:46.115Z,90.38
2022-08-20T23:58:38.687Z,90.49
